sensor_id;sensor_type;location;lat;lon;timestamp;temperature;humidity
41939;DHT22;23057;48.554;14.454;2023-04-01T00:01:45;6.10;99.90
41939;DHT22;23057;48.554;14.454;2023-04-01T00:04:16;6.10;99.90
41939;DHT22;23057;48.554;14.454;2023-04-01T00:06:47;6.10;99.90
41939;DHT22;23057;48.554;14.454;2023-04-01T00:09:18;6.10;99.90
41939;DHT22;23057;48.554;14.454;2023-04-01T00:11:49;6.20;99.90
41939;DHT22;23057;48.554;14.454;2023-04-01T00:14:20;6.30;99.90
41939;DHT22;23057;48.554;14.454;2023-04-01T00:16:50;6.30;99.90
41939;DHT22;23057;48.554;14.454;2023-04-01T00:19:22;6.30;99.90
41939;DHT22;23057;48.554;14.454;2023-04-01T00:21:53;6.30;99.90
41939;DHT22;23057;48.554;14.454;2023-04-01T00:24:24;6.30;99.90
41939;DHT22;23057;48.554;14.454;2023-04-01T00:26:55;6.30;99.90
41939;DHT22;23057;48.554;14.454;2023-04-01T00:29:25;6.30;99.90
41939;DHT22;23057;48.554;14.454;2023-04-01T00:31:59;6.30;99.90
41939;DHT22;23057;48.554;14.454;2023-04-01T00:34:30;6.30;99.90
41939;DHT22;23057;48.554;14.454;2023-04-01T00:37:01;6.30;99.90
41939;DHT22;23057;48.554;14.454;2023-04-01T00:39:32;6.30;99.90
41939;DHT22;23057;48.554;14.454;2023-04-01T00:42:04;6.30;99.90
41939;DHT22;23057;48.554;14.454;2023-04-01T00:44:36;6.30;99.90
41939;DHT22;23057;48.554;14.454;2023-04-01T00:47:08;6.30;99.90
41939;DHT22;23057;48.554;14.454;2023-04-01T00:49:40;6.30;99.90
41939;DHT22;23057;48.554;14.454;2023-04-01T00:52:17;6.30;99.90
41939;DHT22;23057;48.554;14.454;2023-04-01T00:54:54;6.30;99.90
41939;DHT22;23057;48.554;14.454;2023-04-01T00:57:32;6.30;99.90
41939;DHT22;23057;48.554;14.454;2023-04-01T01:00:09;6.30;99.90
41939;DHT22;23057;48.554;14.454;2023-04-01T01:02:44;6.30;99.90
41939;DHT22;23057;48.554;14.454;2023-04-01T01:05:16;6.40;99.90
41939;DHT22;23057;48.554;14.454;2023-04-01T01:10:52;6.30;99.90
41939;DHT22;23057;48.554;14.454;2023-04-01T01:13:26;6.30;99.90
41939;DHT22;23057;48.554;14.454;2023-04-01T01:16:20;6.30;99.90
41939;DHT22;23057;48.554;14.454;2023-04-01T01:19:07;6.30;99.90
41939;DHT22;23057;48.554;14.454;2023-04-01T01:25:35;6.20;99.90
41939;DHT22;23057;48.554;14.454;2023-04-01T01:37:58;6.10;99.90
41939;DHT22;23057;48.554;14.454;2023-04-01T01:40:35;6.00;99.90
41939;DHT22;23057;48.554;14.454;2023-04-01T01:43:10;6.00;99.90
41939;DHT22;23057;48.554;14.454;2023-04-01T01:45:48;6.00;99.90
41939;DHT22;23057;48.554;14.454;2023-04-01T01:48:26;6.00;99.90
41939;DHT22;23057;48.554;14.454;2023-04-01T01:50:59;6.00;99.90
41939;DHT22;23057;48.554;14.454;2023-04-01T01:53:30;5.90;99.90
41939;DHT22;23057;48.554;14.454;2023-04-01T01:56:01;5.90;99.90
41939;DHT22;23057;48.554;14.454;2023-04-01T01:58:37;5.90;99.90
41939;DHT22;23057;48.554;14.454;2023-04-01T02:01:25;5.90;99.90
41939;DHT22;23057;48.554;14.454;2023-04-01T02:04:01;5.90;99.90
41939;DHT22;23057;48.554;14.454;2023-04-01T02:06:34;5.90;99.90
41939;DHT22;23057;48.554;14.454;2023-04-01T02:09:13;5.90;99.90
41939;DHT22;23057;48.554;14.454;2023-04-01T02:14:39;5.80;99.90
41939;DHT22;23057;48.554;14.454;2023-04-01T02:17:16;5.90;99.90
41939;DHT22;23057;48.554;14.454;2023-04-01T02:19:52;5.90;99.90
41939;DHT22;23057;48.554;14.454;2023-04-01T02:22:29;5.90;99.90
41939;DHT22;23057;48.554;14.454;2023-04-01T02:25:10;5.90;99.90
41939;DHT22;23057;48.554;14.454;2023-04-01T02:27:46;5.90;99.90
41939;DHT22;23057;48.554;14.454;2023-04-01T02:30:17;5.90;99.90
41939;DHT22;23057;48.554;14.454;2023-04-01T02:32:49;5.90;99.90
41939;DHT22;23057;48.554;14.454;2023-04-01T02:35:20;5.90;99.90
41939;DHT22;23057;48.554;14.454;2023-04-01T02:37:52;5.90;99.90
41939;DHT22;23057;48.554;14.454;2023-04-01T02:40:25;5.90;99.90
41939;DHT22;23057;48.554;14.454;2023-04-01T02:42:55;5.90;99.90
41939;DHT22;23057;48.554;14.454;2023-04-01T02:45:26;5.90;99.90
41939;DHT22;23057;48.554;14.454;2023-04-01T02:47:57;5.90;99.90
41939;DHT22;23057;48.554;14.454;2023-04-01T02:50:28;5.90;99.90
41939;DHT22;23057;48.554;14.454;2023-04-01T02:52:58;6.00;99.90
41939;DHT22;23057;48.554;14.454;2023-04-01T02:55:29;5.90;99.90
41939;DHT22;23057;48.554;14.454;2023-04-01T02:58:01;5.90;99.90
41939;DHT22;23057;48.554;14.454;2023-04-01T03:00:32;5.90;99.90
41939;DHT22;23057;48.554;14.454;2023-04-01T03:03:03;5.90;99.90
41939;DHT22;23057;48.554;14.454;2023-04-01T03:05:33;5.90;99.90
41939;DHT22;23057;48.554;14.454;2023-04-01T03:08:04;5.90;99.90
41939;DHT22;23057;48.554;14.454;2023-04-01T03:10:36;5.80;99.90
41939;DHT22;23057;48.554;14.454;2023-04-01T03:13:07;5.80;99.90
41939;DHT22;23057;48.554;14.454;2023-04-01T03:15:38;5.80;99.90
41939;DHT22;23057;48.554;14.454;2023-04-01T03:18:08;5.80;99.90
41939;DHT22;23057;48.554;14.454;2023-04-01T03:20:40;5.80;99.90
41939;DHT22;23057;48.554;14.454;2023-04-01T03:23:11;5.70;99.90
41939;DHT22;23057;48.554;14.454;2023-04-01T03:25:41;5.70;99.90
41939;DHT22;23057;48.554;14.454;2023-04-01T03:28:12;5.70;99.90
41939;DHT22;23057;48.554;14.454;2023-04-01T03:30:43;5.70;99.90
41939;DHT22;23057;48.554;14.454;2023-04-01T03:33:14;5.70;99.90
41939;DHT22;23057;48.554;14.454;2023-04-01T03:35:44;5.70;99.90
41939;DHT22;23057;48.554;14.454;2023-04-01T03:38:15;5.70;99.90
41939;DHT22;23057;48.554;14.454;2023-04-01T03:40:46;5.70;99.90
41939;DHT22;23057;48.554;14.454;2023-04-01T03:43:17;5.70;99.90
41939;DHT22;23057;48.554;14.454;2023-04-01T03:45:48;5.70;99.90
41939;DHT22;23057;48.554;14.454;2023-04-01T03:48:21;5.70;99.90
41939;DHT22;23057;48.554;14.454;2023-04-01T03:50:52;5.70;99.90
41939;DHT22;23057;48.554;14.454;2023-04-01T03:53:23;5.70;99.90
41939;DHT22;23057;48.554;14.454;2023-04-01T03:55:54;5.70;99.90
41939;DHT22;23057;48.554;14.454;2023-04-01T03:58:24;5.70;99.90
41939;DHT22;23057;48.554;14.454;2023-04-01T04:00:55;5.70;99.90
41939;DHT22;23057;48.554;14.454;2023-04-01T04:03:26;5.70;99.90
41939;DHT22;23057;48.554;14.454;2023-04-01T04:05:57;5.70;99.90
41939;DHT22;23057;48.554;14.454;2023-04-01T04:08:27;5.70;99.90
41939;DHT22;23057;48.554;14.454;2023-04-01T04:10:58;5.70;99.90
41939;DHT22;23057;48.554;14.454;2023-04-01T04:13:29;5.70;99.90
41939;DHT22;23057;48.554;14.454;2023-04-01T04:16:00;5.70;99.90
41939;DHT22;23057;48.554;14.454;2023-04-01T04:18:30;5.70;99.90
41939;DHT22;23057;48.554;14.454;2023-04-01T04:21:02;5.70;99.90
41939;DHT22;23057;48.554;14.454;2023-04-01T04:23:33;5.70;99.90
41939;DHT22;23057;48.554;14.454;2023-04-01T04:26:05;5.70;99.90
41939;DHT22;23057;48.554;14.454;2023-04-01T04:28:38;5.70;99.90
41939;DHT22;23057;48.554;14.454;2023-04-01T04:31:09;5.70;99.90
41939;DHT22;23057;48.554;14.454;2023-04-01T04:33:40;5.80;99.90
41939;DHT22;23057;48.554;14.454;2023-04-01T04:36:11;5.80;99.90
41939;DHT22;23057;48.554;14.454;2023-04-01T04:38:42;5.80;99.90
41939;DHT22;23057;48.554;14.454;2023-04-01T04:41:14;5.80;99.90
41939;DHT22;23057;48.554;14.454;2023-04-01T04:43:48;5.80;99.90
41939;DHT22;23057;48.554;14.454;2023-04-01T04:46:22;5.80;99.90
41939;DHT22;23057;48.554;14.454;2023-04-01T04:48:53;5.80;99.90
41939;DHT22;23057;48.554;14.454;2023-04-01T04:51:24;5.80;99.90
41939;DHT22;23057;48.554;14.454;2023-04-01T04:53:56;5.80;99.90
41939;DHT22;23057;48.554;14.454;2023-04-01T04:56:26;5.80;99.90
41939;DHT22;23057;48.554;14.454;2023-04-01T04:58:57;5.80;99.90
41939;DHT22;23057;48.554;14.454;2023-04-01T05:01:28;5.80;99.90
41939;DHT22;23057;48.554;14.454;2023-04-01T05:03:59;5.90;99.90
41939;DHT22;23057;48.554;14.454;2023-04-01T05:06:30;5.80;99.90
41939;DHT22;23057;48.554;14.454;2023-04-01T05:09:01;5.80;99.90
41939;DHT22;23057;48.554;14.454;2023-04-01T05:11:32;5.80;99.90
41939;DHT22;23057;48.554;14.454;2023-04-01T05:14:03;5.80;99.90
41939;DHT22;23057;48.554;14.454;2023-04-01T05:16:33;5.80;99.90
41939;DHT22;23057;48.554;14.454;2023-04-01T05:19:04;5.80;99.90
41939;DHT22;23057;48.554;14.454;2023-04-01T05:21:35;5.80;99.90
41939;DHT22;23057;48.554;14.454;2023-04-01T05:24:09;5.90;99.90
41939;DHT22;23057;48.554;14.454;2023-04-01T05:26:40;5.90;99.90
41939;DHT22;23057;48.554;14.454;2023-04-01T05:29:11;6.00;99.90
41939;DHT22;23057;48.554;14.454;2023-04-01T05:31:41;6.10;99.90
41939;DHT22;23057;48.554;14.454;2023-04-01T05:34:13;6.10;99.90
41939;DHT22;23057;48.554;14.454;2023-04-01T05:36:44;6.10;99.90
41939;DHT22;23057;48.554;14.454;2023-04-01T05:39:15;6.10;99.90
41939;DHT22;23057;48.554;14.454;2023-04-01T05:41:45;6.20;99.90
41939;DHT22;23057;48.554;14.454;2023-04-01T05:44:16;6.20;99.90
41939;DHT22;23057;48.554;14.454;2023-04-01T05:46:48;6.20;99.90
41939;DHT22;23057;48.554;14.454;2023-04-01T05:49:18;6.20;99.90
41939;DHT22;23057;48.554;14.454;2023-04-01T05:51:49;6.20;99.90
41939;DHT22;23057;48.554;14.454;2023-04-01T05:54:21;6.20;99.90
41939;DHT22;23057;48.554;14.454;2023-04-01T05:56:52;6.30;99.90
41939;DHT22;23057;48.554;14.454;2023-04-01T05:59:23;6.40;99.90
41939;DHT22;23057;48.554;14.454;2023-04-01T06:01:54;6.40;99.90
41939;DHT22;23057;48.554;14.454;2023-04-01T06:04:26;6.40;99.90
41939;DHT22;23057;48.554;14.454;2023-04-01T06:07:05;6.40;99.90
41939;DHT22;23057;48.554;14.454;2023-04-01T06:09:45;6.30;99.90
41939;DHT22;23057;48.554;14.454;2023-04-01T06:12:22;6.40;99.90
41939;DHT22;23057;48.554;14.454;2023-04-01T06:18:16;6.40;99.90
41939;DHT22;23057;48.554;14.454;2023-04-01T06:24:20;6.50;99.90
41939;DHT22;23057;48.554;14.454;2023-04-01T06:30:43;6.50;99.90
41939;DHT22;23057;48.554;14.454;2023-04-01T06:39:30;6.60;99.90
41939;DHT22;23057;48.554;14.454;2023-04-01T06:45:53;7.00;99.90
41939;DHT22;23057;48.554;14.454;2023-04-01T06:48:39;6.80;99.90
41939;DHT22;23057;48.554;14.454;2023-04-01T06:51:44;6.70;99.90
41939;DHT22;23057;48.554;14.454;2023-04-01T06:54:33;6.50;99.90
41939;DHT22;23057;48.554;14.454;2023-04-01T06:57:31;7.30;99.90
41939;DHT22;23057;48.554;14.454;2023-04-01T07:00:27;7.50;99.90
41939;DHT22;23057;48.554;14.454;2023-04-01T07:06:06;6.70;99.90
41939;DHT22;23057;48.554;14.454;2023-04-01T07:08:46;6.70;99.90
41939;DHT22;23057;48.554;14.454;2023-04-01T07:11:40;6.70;99.90
41939;DHT22;23057;48.554;14.454;2023-04-01T07:14:18;6.60;99.90
41939;DHT22;23057;48.554;14.454;2023-04-01T07:16:56;6.50;99.90
41939;DHT22;23057;48.554;14.454;2023-04-01T07:19:45;6.50;99.90
41939;DHT22;23057;48.554;14.454;2023-04-01T07:22:28;6.50;99.90
41939;DHT22;23057;48.554;14.454;2023-04-01T07:25:17;6.50;99.90
41939;DHT22;23057;48.554;14.454;2023-04-01T07:27:53;6.50;99.90
41939;DHT22;23057;48.554;14.454;2023-04-01T07:36:32;6.50;99.90
41939;DHT22;23057;48.554;14.454;2023-04-01T07:45:36;6.60;99.90
41939;DHT22;23057;48.554;14.454;2023-04-01T07:48:38;6.70;99.90
41939;DHT22;23057;48.554;14.454;2023-04-01T07:51:29;6.80;99.90
41939;DHT22;23057;48.554;14.454;2023-04-01T07:57:12;6.80;99.90
41939;DHT22;23057;48.554;14.454;2023-04-01T08:00:02;6.90;99.90
41939;DHT22;23057;48.554;14.454;2023-04-01T08:11:50;7.30;99.90
41939;DHT22;23057;48.554;14.454;2023-04-01T08:17:59;7.50;99.90
41939;DHT22;23057;48.554;14.454;2023-04-01T08:23:31;7.20;99.90
41939;DHT22;23057;48.554;14.454;2023-04-01T08:32:17;7.20;99.90
41939;DHT22;23057;48.554;14.454;2023-04-01T08:35:42;7.50;99.90
41939;DHT22;23057;48.554;14.454;2023-04-01T08:38:12;7.60;99.90
41939;DHT22;23057;48.554;14.454;2023-04-01T08:44:13;7.70;99.90
41939;DHT22;23057;48.554;14.454;2023-04-01T08:52:37;7.30;99.90
41939;DHT22;23057;48.554;14.454;2023-04-01T08:58:55;7.70;99.90
41939;DHT22;23057;48.554;14.454;2023-04-01T09:01:55;8.10;99.90
41939;DHT22;23057;48.554;14.454;2023-04-01T09:08:13;8.80;99.90
41939;DHT22;23057;48.554;14.454;2023-04-01T09:11:08;8.50;1.00
41939;DHT22;23057;48.554;14.454;2023-04-01T09:14:26;8.50;99.90
41939;DHT22;23057;48.554;14.454;2023-04-01T09:20:59;8.70;99.90
41939;DHT22;23057;48.554;14.454;2023-04-01T09:26:42;9.10;99.90
41939;DHT22;23057;48.554;14.454;2023-04-01T09:47:43;9.40;1.00
41939;DHT22;23057;48.554;14.454;2023-04-01T09:59:43;9.10;99.90
41939;DHT22;23057;48.554;14.454;2023-04-01T10:15:19;10.20;99.90
41939;DHT22;23057;48.554;14.454;2023-04-01T10:21:00;11.00;65.80
41939;DHT22;23057;48.554;14.454;2023-04-01T10:36:31;9.80;99.90
41939;DHT22;23057;48.554;14.454;2023-04-01T10:39:33;9.30;1.00
41939;DHT22;23057;48.554;14.454;2023-04-01T10:42:55;9.10;1.00
41939;DHT22;23057;48.554;14.454;2023-04-01T10:49:15;9.60;1.00
41939;DHT22;23057;48.554;14.454;2023-04-01T10:55:23;11.00;1.00
41939;DHT22;23057;48.554;14.454;2023-04-01T11:04:13;10.80;99.90
41939;DHT22;23057;48.554;14.454;2023-04-01T11:17:15;9.60;99.90
41939;DHT22;23057;48.554;14.454;2023-04-01T11:26:02;9.80;99.90
41939;DHT22;23057;48.554;14.454;2023-04-01T11:29:09;10.10;99.90
41939;DHT22;23057;48.554;14.454;2023-04-01T11:32:02;9.80;99.90
41939;DHT22;23057;48.554;14.454;2023-04-01T11:35:18;9.70;99.90
41939;DHT22;23057;48.554;14.454;2023-04-01T11:41:02;10.90;99.90
41939;DHT22;23057;48.554;14.454;2023-04-01T11:50:08;10.70;99.90
41939;DHT22;23057;48.554;14.454;2023-04-01T12:17:12;11.70;1.00
41939;DHT22;23057;48.554;14.454;2023-04-01T12:23:06;11.50;1.00
41939;DHT22;23057;48.554;14.454;2023-04-01T12:40:19;11.60;1.00
41939;DHT22;23057;48.554;14.454;2023-04-01T12:43:24;11.30;1.00
41939;DHT22;23057;48.554;14.454;2023-04-01T13:19:42;9.40;99.90
41939;DHT22;23057;48.554;14.454;2023-04-01T13:22:04;9.40;99.90
41939;DHT22;23057;48.554;14.454;2023-04-01T13:25:13;9.40;99.90
41939;DHT22;23057;48.554;14.454;2023-04-01T13:28:15;9.40;99.90
41939;DHT22;23057;48.554;14.454;2023-04-01T13:31:00;9.80;99.90
41939;DHT22;23057;48.554;14.454;2023-04-01T13:37:02;10.30;97.70
41939;DHT22;23057;48.554;14.454;2023-04-01T13:48:57;10.50;1.00
41939;DHT22;23057;48.554;14.454;2023-04-01T14:07:13;10.30;1.00
41939;DHT22;23057;48.554;14.454;2023-04-01T14:13:15;10.30;1.00
41939;DHT22;23057;48.554;14.454;2023-04-01T14:19:38;10.00;1.00
41939;DHT22;23057;48.554;14.454;2023-04-01T14:34:38;9.60;99.90
41939;DHT22;23057;48.554;14.454;2023-04-01T14:46:34;9.80;99.90
41939;DHT22;23057;48.554;14.454;2023-04-01T14:52:14;9.20;99.90
41939;DHT22;23057;48.554;14.454;2023-04-01T14:54:57;9.40;1.00
41939;DHT22;23057;48.554;14.454;2023-04-01T14:57:29;9.40;99.90
41939;DHT22;23057;48.554;14.454;2023-04-01T15:02:55;9.00;1.00
41939;DHT22;23057;48.554;14.454;2023-04-01T15:05:45;8.90;99.90
41939;DHT22;23057;48.554;14.454;2023-04-01T15:35:43;7.80;99.90
41939;DHT22;23057;48.554;14.454;2023-04-01T15:38:30;7.80;99.90
41939;DHT22;23057;48.554;14.454;2023-04-01T15:41:21;7.80;99.90
41939;DHT22;23057;48.554;14.454;2023-04-01T15:44:26;7.90;99.90
41939;DHT22;23057;48.554;14.454;2023-04-01T15:55:37;7.80;99.90
41939;DHT22;23057;48.554;14.454;2023-04-01T16:04:21;7.60;99.90
41939;DHT22;23057;48.554;14.454;2023-04-01T16:19:59;7.40;99.90
41939;DHT22;23057;48.554;14.454;2023-04-01T16:22:55;7.40;99.90
41939;DHT22;23057;48.554;14.454;2023-04-01T16:25:40;7.30;99.90
41939;DHT22;23057;48.554;14.454;2023-04-01T16:31:48;7.10;99.90
41939;DHT22;23057;48.554;14.454;2023-04-01T16:34:07;7.10;99.90
41939;DHT22;23057;48.554;14.454;2023-04-01T16:37:08;7.00;99.90
41939;DHT22;23057;48.554;14.454;2023-04-01T16:43:21;7.00;99.90
41939;DHT22;23057;48.554;14.454;2023-04-01T16:51:45;6.80;99.90
41939;DHT22;23057;48.554;14.454;2023-04-01T16:54:47;6.70;99.90
41939;DHT22;23057;48.554;14.454;2023-04-01T17:00:24;6.70;99.90
41939;DHT22;23057;48.554;14.454;2023-04-01T17:03:28;6.70;99.90
41939;DHT22;23057;48.554;14.454;2023-04-01T17:18:23;6.60;99.90
41939;DHT22;23057;48.554;14.454;2023-04-01T17:21:00;6.60;99.90
41939;DHT22;23057;48.554;14.454;2023-04-01T17:23:53;6.60;99.90
41939;DHT22;23057;48.554;14.454;2023-04-01T17:31:16;6.60;99.90
41939;DHT22;23057;48.554;14.454;2023-04-01T17:39:57;6.50;99.90
41939;DHT22;23057;48.554;14.454;2023-04-01T17:46:11;6.50;99.90
41939;DHT22;23057;48.554;14.454;2023-04-01T17:57:46;6.50;99.90
41939;DHT22;23057;48.554;14.454;2023-04-01T18:06:34;6.50;99.90
41939;DHT22;23057;48.554;14.454;2023-04-01T18:12:43;6.50;99.90
41939;DHT22;23057;48.554;14.454;2023-04-01T18:15:46;6.60;99.90
41939;DHT22;23057;48.554;14.454;2023-04-01T18:18:35;6.50;99.90
41939;DHT22;23057;48.554;14.454;2023-04-01T18:24:19;6.60;99.90
41939;DHT22;23057;48.554;14.454;2023-04-01T18:27:06;6.60;99.90
41939;DHT22;23057;48.554;14.454;2023-04-01T18:32:26;6.60;99.90
41939;DHT22;23057;48.554;14.454;2023-04-01T18:35:28;6.60;99.90
41939;DHT22;23057;48.554;14.454;2023-04-01T18:42:07;6.60;99.90
41939;DHT22;23057;48.554;14.454;2023-04-01T18:45:10;6.60;99.90
41939;DHT22;23057;48.554;14.454;2023-04-01T18:48:12;6.70;99.90
41939;DHT22;23057;48.554;14.454;2023-04-01T18:51:26;6.60;99.90
41939;DHT22;23057;48.554;14.454;2023-04-01T18:54:13;6.70;99.90
41939;DHT22;23057;48.554;14.454;2023-04-01T19:00:12;6.70;99.90
41939;DHT22;23057;48.554;14.454;2023-04-01T19:02:57;6.70;99.90
41939;DHT22;23057;48.554;14.454;2023-04-01T19:05:38;6.70;99.90
41939;DHT22;23057;48.554;14.454;2023-04-01T19:11:09;6.70;99.90
41939;DHT22;23057;48.554;14.454;2023-04-01T19:17:10;6.60;99.90
41939;DHT22;23057;48.554;14.454;2023-04-01T19:23:34;6.60;99.90
41939;DHT22;23057;48.554;14.454;2023-04-01T19:26:33;6.60;99.90
41939;DHT22;23057;48.554;14.454;2023-04-01T19:36:02;6.60;99.90
41939;DHT22;23057;48.554;14.454;2023-04-01T19:39:23;6.60;99.90
41939;DHT22;23057;48.554;14.454;2023-04-01T19:42:15;6.60;99.90
41939;DHT22;23057;48.554;14.454;2023-04-01T19:45:07;6.60;99.90
41939;DHT22;23057;48.554;14.454;2023-04-01T19:50:42;6.60;99.90
41939;DHT22;23057;48.554;14.454;2023-04-01T19:53:35;6.60;99.90
41939;DHT22;23057;48.554;14.454;2023-04-01T19:57:09;6.60;99.90
41939;DHT22;23057;48.554;14.454;2023-04-01T19:59:53;6.60;99.90
41939;DHT22;23057;48.554;14.454;2023-04-01T20:05:48;6.50;99.90
41939;DHT22;23057;48.554;14.454;2023-04-01T20:08:31;6.50;99.90
41939;DHT22;23057;48.554;14.454;2023-04-01T20:11:29;6.60;99.90
41939;DHT22;23057;48.554;14.454;2023-04-01T20:22:52;6.60;99.90
41939;DHT22;23057;48.554;14.454;2023-04-01T20:25:38;6.60;99.90
41939;DHT22;23057;48.554;14.454;2023-04-01T20:31:09;6.60;99.90
41939;DHT22;23057;48.554;14.454;2023-04-01T20:34:26;6.60;99.90
41939;DHT22;23057;48.554;14.454;2023-04-01T20:46:10;6.60;99.90
41939;DHT22;23057;48.554;14.454;2023-04-01T20:55:01;6.50;99.90
41939;DHT22;23057;48.554;14.454;2023-04-01T21:01:20;6.60;99.90
41939;DHT22;23057;48.554;14.454;2023-04-01T21:03:46;6.60;99.90
41939;DHT22;23057;48.554;14.454;2023-04-01T21:06:57;6.60;99.90
41939;DHT22;23057;48.554;14.454;2023-04-01T21:10:28;6.60;99.90
41939;DHT22;23057;48.554;14.454;2023-04-01T21:16:52;6.60;99.90
41939;DHT22;23057;48.554;14.454;2023-04-01T21:37:22;6.50;99.90
41939;DHT22;23057;48.554;14.454;2023-04-01T22:04:05;6.50;99.90
41939;DHT22;23057;48.554;14.454;2023-04-01T22:07:00;6.50;99.90
41939;DHT22;23057;48.554;14.454;2023-04-01T22:13:18;6.50;99.90
41939;DHT22;23057;48.554;14.454;2023-04-01T22:18:55;6.50;99.90
41939;DHT22;23057;48.554;14.454;2023-04-01T22:24:30;6.50;99.90
41939;DHT22;23057;48.554;14.454;2023-04-01T22:30:23;6.50;99.90
41939;DHT22;23057;48.554;14.454;2023-04-01T22:33:11;6.50;99.90
41939;DHT22;23057;48.554;14.454;2023-04-01T22:41:34;6.50;99.90
41939;DHT22;23057;48.554;14.454;2023-04-01T22:44:42;6.50;99.90
41939;DHT22;23057;48.554;14.454;2023-04-01T22:56:48;6.50;99.90
41939;DHT22;23057;48.554;14.454;2023-04-01T23:02:24;6.50;99.90
41939;DHT22;23057;48.554;14.454;2023-04-01T23:05:34;6.50;99.90
41939;DHT22;23057;48.554;14.454;2023-04-01T23:16:52;6.50;99.90
41939;DHT22;23057;48.554;14.454;2023-04-01T23:36:43;6.40;99.90
41939;DHT22;23057;48.554;14.454;2023-04-01T23:45:04;6.50;99.90
41939;DHT22;23057;48.554;14.454;2023-04-01T23:47:44;6.40;99.90
41939;DHT22;23057;48.554;14.454;2023-04-01T23:50:23;6.40;99.90
41939;DHT22;23057;48.554;14.454;2023-04-01T23:52:58;6.40;99.90
41939;DHT22;23057;48.554;14.454;2023-04-01T23:55:40;6.40;99.90
41939;DHT22;23057;48.554;14.454;2023-04-01T23:58:21;6.40;99.90
